Gulkana Airport Gulkana US
ICAO: PAGK
IATA:
Category: Medium
Scheduled Services:

Elevation: 1586 ft
TransAlt. 18000 ft.

Airport Communications:
ASOS:134.85
ANCHORAGE CNTR:119.5
CTAF:122.9
KENAI RDO:122.2
TWEB:115.6

PAGK Zoom In..

Runways:

(A) RW 15 length 5001 ft width 100 ft
---- / hdg 148

(B) RW 33 length 5001 ft width 100 ft
---- / hdg 328

Location; PAGK
Day. 17 / Time. 06.53 Zulu
* Altimeter: 29.95
* Temperature: 12° c. 53.6°f.
* Wind from: 030° Speed 03 kn.
Dewpoint: 07° c.
Visibility: 10 Statute Miles.
Clouds: Broken 7000 ft.
Clouds: Overcast 9500 ft.

PAGK 170653Z AUTO 03003KT 10SM BKN070 OVC095 12/07 A2995 RMK AO2 SLP145 T01170072 TSNO $


Wind From 030°
Speed 03 kn.

 
 
jpsmedia.com for Web Design worldairports.se 2018   terms of use